sensor_id;sensor_type;location;lat;lon;timestamp;P1;durP1;ratioP1;P2;durP2;ratioP2
9900;SDS011;4989;48.772;9.154;2024-01-10T00:01:11;7.23;;;5.20;;
9900;SDS011;4989;48.772;9.154;2024-01-10T00:06:13;7.23;;;5.40;;
9900;SDS011;4989;48.772;9.154;2024-01-10T00:11:16;8.63;;;5.20;;
9900;SDS011;4989;48.772;9.154;2024-01-10T00:16:19;6.90;;;5.17;;
9900;SDS011;4989;48.772;9.154;2024-01-10T00:21:21;9.73;;;5.00;;
9900;SDS011;4989;48.772;9.154;2024-01-10T00:26:24;9.90;;;5.23;;
9900;SDS011;4989;48.772;9.154;2024-01-10T00:31:27;7.63;;;4.90;;
9900;SDS011;4989;48.772;9.154;2024-01-10T00:36:30;7.63;;;4.50;;
9900;SDS011;4989;48.772;9.154;2024-01-10T00:41:32;9.10;;;4.87;;
9900;SDS011;4989;48.772;9.154;2024-01-10T00:46:35;12.57;;;5.40;;
9900;SDS011;4989;48.772;9.154;2024-01-10T00:51:38;8.13;;;5.13;;
9900;SDS011;4989;48.772;9.154;2024-01-10T00:56:40;9.87;;;5.80;;
9900;SDS011;4989;48.772;9.154;2024-01-10T01:01:43;8.70;;;5.23;;
9900;SDS011;4989;48.772;9.154;2024-01-10T01:06:46;8.97;;;5.57;;
9900;SDS011;4989;48.772;9.154;2024-01-10T01:11:48;7.33;;;4.97;;
9900;SDS011;4989;48.772;9.154;2024-01-10T01:16:51;10.80;;;5.50;;
9900;SDS011;4989;48.772;9.154;2024-01-10T01:21:54;9.33;;;5.33;;
9900;SDS011;4989;48.772;9.154;2024-01-10T01:26:56;14.23;;;5.20;;
9900;SDS011;4989;48.772;9.154;2024-01-10T01:31:59;9.37;;;5.10;;
9900;SDS011;4989;48.772;9.154;2024-01-10T01:37:02;8.67;;;5.07;;
9900;SDS011;4989;48.772;9.154;2024-01-10T01:42:05;7.47;;;5.10;;
9900;SDS011;4989;48.772;9.154;2024-01-10T01:47:08;7.80;;;5.10;;
9900;SDS011;4989;48.772;9.154;2024-01-10T01:52:11;7.70;;;5.27;;
9900;SDS011;4989;48.772;9.154;2024-01-10T01:57:15;10.93;;;5.83;;
9900;SDS011;4989;48.772;9.154;2024-01-10T02:02:17;8.23;;;5.57;;
9900;SDS011;4989;48.772;9.154;2024-01-10T02:07:21;9.60;;;5.70;;
9900;SDS011;4989;48.772;9.154;2024-01-10T02:12:24;7.93;;;5.13;;
9900;SDS011;4989;48.772;9.154;2024-01-10T02:17:27;9.73;;;4.77;;
9900;SDS011;4989;48.772;9.154;2024-01-10T02:22:30;8.07;;;5.30;;
9900;SDS011;4989;48.772;9.154;2024-01-10T02:27:33;10.73;;;5.33;;
9900;SDS011;4989;48.772;9.154;2024-01-10T02:32:40;6.77;;;4.43;;
9900;SDS011;4989;48.772;9.154;2024-01-10T02:37:43;9.33;;;5.67;;
9900;SDS011;4989;48.772;9.154;2024-01-10T02:42:46;8.33;;;5.20;;
9900;SDS011;4989;48.772;9.154;2024-01-10T02:47:49;7.40;;;5.10;;
9900;SDS011;4989;48.772;9.154;2024-01-10T02:52:51;7.37;;;5.10;;
9900;SDS011;4989;48.772;9.154;2024-01-10T02:57:54;8.00;;;5.40;;
9900;SDS011;4989;48.772;9.154;2024-01-10T03:02:57;9.03;;;5.00;;
9900;SDS011;4989;48.772;9.154;2024-01-10T03:07:59;6.77;;;5.23;;
9900;SDS011;4989;48.772;9.154;2024-01-10T03:13:04;9.40;;;5.63;;
9900;SDS011;4989;48.772;9.154;2024-01-10T03:18:06;9.37;;;5.47;;
9900;SDS011;4989;48.772;9.154;2024-01-10T03:23:09;10.50;;;5.30;;
9900;SDS011;4989;48.772;9.154;2024-01-10T03:28:15;10.27;;;5.67;;
9900;SDS011;4989;48.772;9.154;2024-01-10T03:33:18;9.20;;;5.93;;
9900;SDS011;4989;48.772;9.154;2024-01-10T03:38:21;6.90;;;5.10;;
9900;SDS011;4989;48.772;9.154;2024-01-10T03:43:24;9.47;;;6.10;;
9900;SDS011;4989;48.772;9.154;2024-01-10T03:48:26;10.20;;;5.77;;
9900;SDS011;4989;48.772;9.154;2024-01-10T03:53:30;9.57;;;5.70;;
9900;SDS011;4989;48.772;9.154;2024-01-10T03:58:32;9.73;;;5.93;;
9900;SDS011;4989;48.772;9.154;2024-01-10T04:03:35;10.07;;;6.07;;
9900;SDS011;4989;48.772;9.154;2024-01-10T04:08:38;9.90;;;5.67;;
9900;SDS011;4989;48.772;9.154;2024-01-10T04:13:41;10.60;;;5.50;;
9900;SDS011;4989;48.772;9.154;2024-01-10T04:18:44;11.47;;;5.77;;
9900;SDS011;4989;48.772;9.154;2024-01-10T04:23:46;11.70;;;5.80;;
9900;SDS011;4989;48.772;9.154;2024-01-10T04:28:49;12.03;;;6.27;;
9900;SDS011;4989;48.772;9.154;2024-01-10T04:33:52;11.17;;;6.77;;
9900;SDS011;4989;48.772;9.154;2024-01-10T04:38:54;9.53;;;6.53;;
9900;SDS011;4989;48.772;9.154;2024-01-10T04:43:57;9.20;;;6.00;;
9900;SDS011;4989;48.772;9.154;2024-01-10T04:49:00;7.93;;;5.50;;
9900;SDS011;4989;48.772;9.154;2024-01-10T04:54:02;9.93;;;6.40;;
9900;SDS011;4989;48.772;9.154;2024-01-10T04:59:05;9.93;;;5.53;;
9900;SDS011;4989;48.772;9.154;2024-01-10T05:04:08;10.53;;;5.70;;
9900;SDS011;4989;48.772;9.154;2024-01-10T05:09:11;10.50;;;6.10;;
9900;SDS011;4989;48.772;9.154;2024-01-10T05:14:14;9.00;;;5.20;;
9900;SDS011;4989;48.772;9.154;2024-01-10T05:19:17;9.67;;;6.57;;
9900;SDS011;4989;48.772;9.154;2024-01-10T05:24:19;12.67;;;6.00;;
9900;SDS011;4989;48.772;9.154;2024-01-10T05:29:22;11.93;;;6.43;;
9900;SDS011;4989;48.772;9.154;2024-01-10T05:34:26;9.03;;;5.47;;
9900;SDS011;4989;48.772;9.154;2024-01-10T05:39:28;10.63;;;6.57;;
9900;SDS011;4989;48.772;9.154;2024-01-10T05:44:32;10.77;;;6.27;;
9900;SDS011;4989;48.772;9.154;2024-01-10T05:49:35;11.07;;;6.33;;
9900;SDS011;4989;48.772;9.154;2024-01-10T05:54:38;10.47;;;6.40;;
9900;SDS011;4989;48.772;9.154;2024-01-10T05:59:41;11.43;;;6.37;;
9900;SDS011;4989;48.772;9.154;2024-01-10T06:04:44;9.77;;;6.53;;
9900;SDS011;4989;48.772;9.154;2024-01-10T06:09:47;10.40;;;6.10;;
9900;SDS011;4989;48.772;9.154;2024-01-10T06:14:50;12.53;;;6.97;;
9900;SDS011;4989;48.772;9.154;2024-01-10T06:19:52;9.13;;;6.00;;
9900;SDS011;4989;48.772;9.154;2024-01-10T06:24:55;11.07;;;6.20;;
9900;SDS011;4989;48.772;9.154;2024-01-10T06:29:58;11.93;;;6.50;;
9900;SDS011;4989;48.772;9.154;2024-01-10T06:35:01;11.87;;;6.10;;
9900;SDS011;4989;48.772;9.154;2024-01-10T06:40:04;12.83;;;6.40;;
9900;SDS011;4989;48.772;9.154;2024-01-10T06:45:08;9.73;;;5.97;;
9900;SDS011;4989;48.772;9.154;2024-01-10T06:50:11;9.67;;;6.20;;
9900;SDS011;4989;48.772;9.154;2024-01-10T06:55:14;9.97;;;5.77;;
9900;SDS011;4989;48.772;9.154;2024-01-10T07:00:17;13.27;;;6.57;;
9900;SDS011;4989;48.772;9.154;2024-01-10T07:05:23;10.70;;;5.83;;
9900;SDS011;4989;48.772;9.154;2024-01-10T07:10:26;12.07;;;6.30;;
9900;SDS011;4989;48.772;9.154;2024-01-10T07:15:30;9.37;;;6.17;;
9900;SDS011;4989;48.772;9.154;2024-01-10T07:20:32;12.40;;;7.07;;
9900;SDS011;4989;48.772;9.154;2024-01-10T07:25:35;11.63;;;6.37;;
9900;SDS011;4989;48.772;9.154;2024-01-10T07:30:38;14.80;;;6.47;;
9900;SDS011;4989;48.772;9.154;2024-01-10T07:35:41;10.93;;;6.47;;
9900;SDS011;4989;48.772;9.154;2024-01-10T07:40:44;12.13;;;6.70;;
9900;SDS011;4989;48.772;9.154;2024-01-10T07:45:46;11.10;;;6.50;;
9900;SDS011;4989;48.772;9.154;2024-01-10T07:50:49;10.90;;;6.77;;
9900;SDS011;4989;48.772;9.154;2024-01-10T07:55:52;10.23;;;5.70;;
9900;SDS011;4989;48.772;9.154;2024-01-10T08:00:54;12.37;;;7.07;;
9900;SDS011;4989;48.772;9.154;2024-01-10T08:05:57;12.17;;;7.70;;
9900;SDS011;4989;48.772;9.154;2024-01-10T08:11:00;12.97;;;7.37;;
9900;SDS011;4989;48.772;9.154;2024-01-10T08:16:03;11.27;;;7.00;;
9900;SDS011;4989;48.772;9.154;2024-01-10T08:21:06;10.83;;;6.47;;
9900;SDS011;4989;48.772;9.154;2024-01-10T08:26:09;12.50;;;6.93;;
9900;SDS011;4989;48.772;9.154;2024-01-10T08:31:11;9.23;;;6.33;;
9900;SDS011;4989;48.772;9.154;2024-01-10T08:36:17;10.13;;;6.10;;
9900;SDS011;4989;48.772;9.154;2024-01-10T08:41:20;11.57;;;6.93;;
9900;SDS011;4989;48.772;9.154;2024-01-10T08:46:23;13.83;;;7.17;;
9900;SDS011;4989;48.772;9.154;2024-01-10T08:51:28;12.20;;;7.13;;
9900;SDS011;4989;48.772;9.154;2024-01-10T08:56:32;12.43;;;7.27;;
9900;SDS011;4989;48.772;9.154;2024-01-10T09:01:34;14.70;;;8.50;;
9900;SDS011;4989;48.772;9.154;2024-01-10T09:06:38;13.63;;;8.10;;
9900;SDS011;4989;48.772;9.154;2024-01-10T09:11:44;13.50;;;7.47;;
9900;SDS011;4989;48.772;9.154;2024-01-10T09:16:47;12.43;;;7.13;;
9900;SDS011;4989;48.772;9.154;2024-01-10T09:21:50;14.33;;;8.37;;
9900;SDS011;4989;48.772;9.154;2024-01-10T09:26:53;12.00;;;8.00;;
9900;SDS011;4989;48.772;9.154;2024-01-10T09:31:56;13.40;;;8.00;;
9900;SDS011;4989;48.772;9.154;2024-01-10T09:36:58;12.57;;;7.83;;
9900;SDS011;4989;48.772;9.154;2024-01-10T09:42:03;13.67;;;8.00;;
9900;SDS011;4989;48.772;9.154;2024-01-10T09:47:08;14.63;;;7.93;;
9900;SDS011;4989;48.772;9.154;2024-01-10T09:52:15;13.37;;;8.27;;
9900;SDS011;4989;48.772;9.154;2024-01-10T09:57:29;14.97;;;8.30;;
9900;SDS011;4989;48.772;9.154;2024-01-10T10:02:32;15.33;;;8.57;;
9900;SDS011;4989;48.772;9.154;2024-01-10T10:07:46;15.37;;;8.07;;
9900;SDS011;4989;48.772;9.154;2024-01-10T10:12:50;12.80;;;8.50;;
9900;SDS011;4989;48.772;9.154;2024-01-10T10:17:56;10.90;;;7.80;;
9900;SDS011;4989;48.772;9.154;2024-01-10T10:28:08;14.63;;;8.77;;
9900;SDS011;4989;48.772;9.154;2024-01-10T10:33:25;17.37;;;9.47;;
9900;SDS011;4989;48.772;9.154;2024-01-10T10:38:28;18.57;;;9.33;;
9900;SDS011;4989;48.772;9.154;2024-01-10T10:43:32;15.47;;;8.70;;
9900;SDS011;4989;48.772;9.154;2024-01-10T10:48:39;18.13;;;9.43;;
9900;SDS011;4989;48.772;9.154;2024-01-10T10:53:42;16.63;;;9.53;;
9900;SDS011;4989;48.772;9.154;2024-01-10T10:58:47;16.90;;;9.47;;
9900;SDS011;4989;48.772;9.154;2024-01-10T11:03:50;17.00;;;10.23;;
9900;SDS011;4989;48.772;9.154;2024-01-10T11:08:58;19.70;;;10.50;;
9900;SDS011;4989;48.772;9.154;2024-01-10T11:24:57;17.20;;;10.30;;
9900;SDS011;4989;48.772;9.154;2024-01-10T11:30:03;18.07;;;10.53;;
9900;SDS011;4989;48.772;9.154;2024-01-10T11:35:19;16.93;;;10.37;;
9900;SDS011;4989;48.772;9.154;2024-01-10T11:46:05;17.07;;;11.37;;
9900;SDS011;4989;48.772;9.154;2024-01-10T11:51:08;17.77;;;11.17;;
9900;SDS011;4989;48.772;9.154;2024-01-10T11:56:12;17.10;;;12.63;;
9900;SDS011;4989;48.772;9.154;2024-01-10T12:01:33;20.30;;;12.67;;
9900;SDS011;4989;48.772;9.154;2024-01-10T12:06:38;18.13;;;12.60;;
9900;SDS011;4989;48.772;9.154;2024-01-10T12:11:41;19.90;;;12.87;;
9900;SDS011;4989;48.772;9.154;2024-01-10T12:16:43;19.27;;;13.00;;
9900;SDS011;4989;48.772;9.154;2024-01-10T12:21:46;22.60;;;13.33;;
9900;SDS011;4989;48.772;9.154;2024-01-10T12:26:50;21.33;;;13.33;;
9900;SDS011;4989;48.772;9.154;2024-01-10T12:31:54;22.20;;;13.23;;
9900;SDS011;4989;48.772;9.154;2024-01-10T12:36:57;23.73;;;13.97;;
9900;SDS011;4989;48.772;9.154;2024-01-10T12:42:01;20.33;;;14.10;;
9900;SDS011;4989;48.772;9.154;2024-01-10T12:47:04;20.07;;;13.57;;
9900;SDS011;4989;48.772;9.154;2024-01-10T12:52:08;20.97;;;13.03;;
9900;SDS011;4989;48.772;9.154;2024-01-10T12:57:16;18.90;;;11.67;;
9900;SDS011;4989;48.772;9.154;2024-01-10T13:02:19;17.10;;;11.77;;
9900;SDS011;4989;48.772;9.154;2024-01-10T13:07:23;19.07;;;11.80;;
9900;SDS011;4989;48.772;9.154;2024-01-10T13:12:27;19.93;;;12.03;;
9900;SDS011;4989;48.772;9.154;2024-01-10T13:17:30;18.90;;;11.47;;
9900;SDS011;4989;48.772;9.154;2024-01-10T13:22:33;19.10;;;11.53;;
9900;SDS011;4989;48.772;9.154;2024-01-10T13:27:36;18.37;;;11.80;;
9900;SDS011;4989;48.772;9.154;2024-01-10T13:32:38;17.20;;;11.27;;
9900;SDS011;4989;48.772;9.154;2024-01-10T13:37:41;17.30;;;10.83;;
9900;SDS011;4989;48.772;9.154;2024-01-10T13:42:44;17.03;;;10.93;;
9900;SDS011;4989;48.772;9.154;2024-01-10T13:47:47;15.57;;;10.20;;
9900;SDS011;4989;48.772;9.154;2024-01-10T13:52:53;16.37;;;9.87;;
9900;SDS011;4989;48.772;9.154;2024-01-10T13:57:55;16.10;;;10.47;;
9900;SDS011;4989;48.772;9.154;2024-01-10T14:02:58;20.17;;;12.07;;
9900;SDS011;4989;48.772;9.154;2024-01-10T14:08:01;14.43;;;10.33;;
9900;SDS011;4989;48.772;9.154;2024-01-10T14:13:04;17.97;;;10.67;;
9900;SDS011;4989;48.772;9.154;2024-01-10T14:18:07;17.70;;;11.10;;
9900;SDS011;4989;48.772;9.154;2024-01-10T14:23:10;17.27;;;11.03;;
9900;SDS011;4989;48.772;9.154;2024-01-10T14:28:13;19.03;;;11.97;;
9900;SDS011;4989;48.772;9.154;2024-01-10T14:33:15;17.07;;;11.30;;
9900;SDS011;4989;48.772;9.154;2024-01-10T14:38:18;20.07;;;11.53;;
9900;SDS011;4989;48.772;9.154;2024-01-10T14:43:21;20.97;;;12.17;;
9900;SDS011;4989;48.772;9.154;2024-01-10T14:48:24;19.27;;;12.00;;
9900;SDS011;4989;48.772;9.154;2024-01-10T14:53:27;20.23;;;12.17;;
9900;SDS011;4989;48.772;9.154;2024-01-10T14:58:29;18.13;;;12.07;;
9900;SDS011;4989;48.772;9.154;2024-01-10T15:03:32;21.43;;;12.53;;
9900;SDS011;4989;48.772;9.154;2024-01-10T15:08:35;18.70;;;11.33;;
9900;SDS011;4989;48.772;9.154;2024-01-10T15:13:40;21.37;;;11.53;;
9900;SDS011;4989;48.772;9.154;2024-01-10T15:18:44;18.47;;;12.33;;
9900;SDS011;4989;48.772;9.154;2024-01-10T15:23:47;20.40;;;12.00;;
9900;SDS011;4989;48.772;9.154;2024-01-10T15:28:50;22.53;;;11.93;;
9900;SDS011;4989;48.772;9.154;2024-01-10T15:33:55;18.67;;;11.93;;
9900;SDS011;4989;48.772;9.154;2024-01-10T15:38:58;19.07;;;11.93;;
9900;SDS011;4989;48.772;9.154;2024-01-10T15:44:01;42.97;;;23.03;;
9900;SDS011;4989;48.772;9.154;2024-01-10T15:49:04;20.33;;;12.83;;
9900;SDS011;4989;48.772;9.154;2024-01-10T15:54:09;17.00;;;10.40;;
9900;SDS011;4989;48.772;9.154;2024-01-10T15:59:12;54.13;;;26.67;;
9900;SDS011;4989;48.772;9.154;2024-01-10T16:04:18;20.50;;;12.03;;
9900;SDS011;4989;48.772;9.154;2024-01-10T16:09:20;18.13;;;10.03;;
9900;SDS011;4989;48.772;9.154;2024-01-10T16:14:23;20.00;;;10.63;;
9900;SDS011;4989;48.772;9.154;2024-01-10T16:19:27;21.07;;;11.23;;
9900;SDS011;4989;48.772;9.154;2024-01-10T16:24:29;19.57;;;11.17;;
9900;SDS011;4989;48.772;9.154;2024-01-10T16:29:32;18.10;;;11.23;;
9900;SDS011;4989;48.772;9.154;2024-01-10T16:34:35;19.23;;;11.63;;
9900;SDS011;4989;48.772;9.154;2024-01-10T16:39:39;19.43;;;11.30;;
9900;SDS011;4989;48.772;9.154;2024-01-10T16:44:42;15.67;;;10.07;;
9900;SDS011;4989;48.772;9.154;2024-01-10T16:49:45;15.47;;;10.07;;
9900;SDS011;4989;48.772;9.154;2024-01-10T16:54:48;16.97;;;10.77;;
9900;SDS011;4989;48.772;9.154;2024-01-10T16:59:51;14.80;;;9.13;;
9900;SDS011;4989;48.772;9.154;2024-01-10T17:04:53;16.20;;;10.40;;
9900;SDS011;4989;48.772;9.154;2024-01-10T17:09:56;19.80;;;12.07;;
9900;SDS011;4989;48.772;9.154;2024-01-10T17:14:59;15.97;;;9.90;;
9900;SDS011;4989;48.772;9.154;2024-01-10T17:20:02;19.43;;;11.00;;
9900;SDS011;4989;48.772;9.154;2024-01-10T17:25:06;20.47;;;12.33;;
9900;SDS011;4989;48.772;9.154;2024-01-10T17:30:13;15.87;;;10.10;;
9900;SDS011;4989;48.772;9.154;2024-01-10T17:35:16;18.40;;;10.50;;
9900;SDS011;4989;48.772;9.154;2024-01-10T17:40:19;17.63;;;10.03;;
9900;SDS011;4989;48.772;9.154;2024-01-10T17:45:22;18.07;;;12.53;;
9900;SDS011;4989;48.772;9.154;2024-01-10T17:50:24;16.47;;;11.57;;
9900;SDS011;4989;48.772;9.154;2024-01-10T17:55:27;18.97;;;10.93;;
9900;SDS011;4989;48.772;9.154;2024-01-10T18:00:30;19.10;;;11.57;;
9900;SDS011;4989;48.772;9.154;2024-01-10T18:05:33;18.97;;;12.87;;
9900;SDS011;4989;48.772;9.154;2024-01-10T18:10:40;23.23;;;12.97;;
9900;SDS011;4989;48.772;9.154;2024-01-10T18:15:43;19.50;;;11.53;;
9900;SDS011;4989;48.772;9.154;2024-01-10T18:20:46;19.10;;;11.33;;
9900;SDS011;4989;48.772;9.154;2024-01-10T18:25:49;18.40;;;10.57;;
9900;SDS011;4989;48.772;9.154;2024-01-10T18:30:51;17.33;;;10.70;;
9900;SDS011;4989;48.772;9.154;2024-01-10T18:35:57;21.27;;;11.60;;
9900;SDS011;4989;48.772;9.154;2024-01-10T18:40:59;18.47;;;10.20;;
9900;SDS011;4989;48.772;9.154;2024-01-10T18:46:02;22.27;;;13.53;;
9900;SDS011;4989;48.772;9.154;2024-01-10T18:51:05;21.87;;;13.17;;
9900;SDS011;4989;48.772;9.154;2024-01-10T18:56:08;20.83;;;12.30;;
9900;SDS011;4989;48.772;9.154;2024-01-10T19:01:11;15.57;;;10.57;;
9900;SDS011;4989;48.772;9.154;2024-01-10T19:06:13;18.27;;;10.77;;
9900;SDS011;4989;48.772;9.154;2024-01-10T19:11:16;18.37;;;10.83;;
9900;SDS011;4989;48.772;9.154;2024-01-10T19:16:20;18.03;;;11.40;;
9900;SDS011;4989;48.772;9.154;2024-01-10T19:21:22;21.53;;;12.00;;
9900;SDS011;4989;48.772;9.154;2024-01-10T19:26:25;18.20;;;11.50;;
9900;SDS011;4989;48.772;9.154;2024-01-10T19:31:28;20.57;;;11.80;;
9900;SDS011;4989;48.772;9.154;2024-01-10T19:36:31;19.50;;;12.03;;
9900;SDS011;4989;48.772;9.154;2024-01-10T19:41:34;19.63;;;12.53;;
9900;SDS011;4989;48.772;9.154;2024-01-10T19:46:37;19.27;;;12.17;;
9900;SDS011;4989;48.772;9.154;2024-01-10T19:51:40;19.17;;;12.57;;
9900;SDS011;4989;48.772;9.154;2024-01-10T19:56:43;22.60;;;12.73;;
9900;SDS011;4989;48.772;9.154;2024-01-10T20:01:46;20.83;;;11.20;;
9900;SDS011;4989;48.772;9.154;2024-01-10T20:06:49;19.23;;;11.63;;
9900;SDS011;4989;48.772;9.154;2024-01-10T20:11:51;20.73;;;12.57;;
9900;SDS011;4989;48.772;9.154;2024-01-10T20:16:54;21.73;;;11.30;;
9900;SDS011;4989;48.772;9.154;2024-01-10T20:21:57;18.43;;;10.83;;
9900;SDS011;4989;48.772;9.154;2024-01-10T20:27:00;22.93;;;11.53;;
9900;SDS011;4989;48.772;9.154;2024-01-10T20:32:02;18.13;;;10.97;;
9900;SDS011;4989;48.772;9.154;2024-01-10T20:37:08;16.63;;;10.77;;
9900;SDS011;4989;48.772;9.154;2024-01-10T20:42:10;17.47;;;11.10;;
9900;SDS011;4989;48.772;9.154;2024-01-10T20:47:14;20.43;;;11.47;;
9900;SDS011;4989;48.772;9.154;2024-01-10T20:52:19;20.97;;;12.97;;
9900;SDS011;4989;48.772;9.154;2024-01-10T20:57:22;19.33;;;11.63;;
9900;SDS011;4989;48.772;9.154;2024-01-10T21:02:26;18.43;;;10.30;;
9900;SDS011;4989;48.772;9.154;2024-01-10T21:07:29;19.87;;;11.80;;
9900;SDS011;4989;48.772;9.154;2024-01-10T21:12:31;16.77;;;10.13;;
9900;SDS011;4989;48.772;9.154;2024-01-10T21:17:34;16.97;;;10.57;;
9900;SDS011;4989;48.772;9.154;2024-01-10T21:22:37;17.47;;;10.03;;
9900;SDS011;4989;48.772;9.154;2024-01-10T21:27:40;20.67;;;11.77;;
9900;SDS011;4989;48.772;9.154;2024-01-10T21:32:43;17.80;;;10.90;;
9900;SDS011;4989;48.772;9.154;2024-01-10T21:37:46;16.27;;;10.50;;
9900;SDS011;4989;48.772;9.154;2024-01-10T21:42:49;19.80;;;10.90;;
9900;SDS011;4989;48.772;9.154;2024-01-10T21:47:52;16.53;;;9.93;;
9900;SDS011;4989;48.772;9.154;2024-01-10T21:52:55;21.03;;;12.17;;
9900;SDS011;4989;48.772;9.154;2024-01-10T21:57:57;17.30;;;11.03;;
9900;SDS011;4989;48.772;9.154;2024-01-10T22:03:01;19.57;;;12.20;;
9900;SDS011;4989;48.772;9.154;2024-01-10T22:08:04;17.97;;;10.03;;
9900;SDS011;4989;48.772;9.154;2024-01-10T22:13:09;19.93;;;11.33;;
9900;SDS011;4989;48.772;9.154;2024-01-10T22:18:12;15.03;;;9.63;;
9900;SDS011;4989;48.772;9.154;2024-01-10T22:23:15;16.43;;;9.67;;
9900;SDS011;4989;48.772;9.154;2024-01-10T22:28:17;16.33;;;10.10;;
9900;SDS011;4989;48.772;9.154;2024-01-10T22:33:20;22.83;;;17.80;;
9900;SDS011;4989;48.772;9.154;2024-01-10T22:38:24;13.13;;;8.33;;
9900;SDS011;4989;48.772;9.154;2024-01-10T22:43:27;15.57;;;8.30;;
9900;SDS011;4989;48.772;9.154;2024-01-10T22:48:30;14.97;;;8.53;;
9900;SDS011;4989;48.772;9.154;2024-01-10T22:53:41;12.97;;;7.80;;
9900;SDS011;4989;48.772;9.154;2024-01-10T22:58:44;15.53;;;9.30;;
9900;SDS011;4989;48.772;9.154;2024-01-10T23:03:46;16.67;;;10.93;;
9900;SDS011;4989;48.772;9.154;2024-01-10T23:08:49;14.10;;;9.27;;
9900;SDS011;4989;48.772;9.154;2024-01-10T23:13:52;14.73;;;8.80;;
9900;SDS011;4989;48.772;9.154;2024-01-10T23:18:55;15.10;;;9.33;;
9900;SDS011;4989;48.772;9.154;2024-01-10T23:23:57;17.73;;;11.63;;
9900;SDS011;4989;48.772;9.154;2024-01-10T23:29:01;17.73;;;9.50;;
9900;SDS011;4989;48.772;9.154;2024-01-10T23:34:04;18.23;;;10.17;;
9900;SDS011;4989;48.772;9.154;2024-01-10T23:39:09;13.70;;;8.00;;
9900;SDS011;4989;48.772;9.154;2024-01-10T23:44:12;15.83;;;8.97;;
9900;SDS011;4989;48.772;9.154;2024-01-10T23:49:15;19.97;;;11.40;;
9900;SDS011;4989;48.772;9.154;2024-01-10T23:54:18;19.17;;;11.90;;
9900;SDS011;4989;48.772;9.154;2024-01-10T23:59:21;17.00;;;11.23;;
